createdAt,value
2023-05-10T05:02:02.633Z,13.39
2023-05-10T05:03:02.641Z,13.39
2023-05-10T05:04:02.546Z,13.42
2023-05-10T05:05:02.475Z,13.41
2023-05-10T05:06:02.432Z,13.36
2023-05-10T05:07:02.435Z,13.32
2023-05-10T05:08:02.419Z,13.44
2023-05-10T05:09:02.423Z,13.30
2023-05-10T05:10:02.401Z,13.38
2023-05-10T05:11:02.389Z,13.38
2023-05-10T05:12:02.378Z,13.49
2023-05-10T05:13:07.416Z,13.51
2023-05-10T05:14:02.341Z,13.48
2023-05-10T05:15:02.355Z,13.51
2023-05-10T05:16:02.388Z,13.54
2023-05-10T05:17:02.329Z,13.44
2023-05-10T05:18:02.389Z,13.46
2023-05-10T05:19:02.292Z,13.54
2023-05-10T05:20:02.289Z,13.49
2023-05-10T05:21:02.265Z,13.52
2023-05-10T05:22:02.265Z,13.51
2023-05-10T05:23:02.279Z,13.60
2023-05-10T05:24:07.264Z,13.64
2023-05-10T05:25:02.230Z,13.62
2023-05-10T05:26:02.209Z,13.69
2023-05-10T05:27:02.193Z,13.70
2023-05-10T05:28:02.182Z,13.71
2023-05-10T05:29:02.309Z,13.77
2023-05-10T05:30:02.167Z,13.69
2023-05-10T05:31:02.170Z,13.66
2023-05-10T05:32:02.251Z,13.71
2023-05-10T05:33:02.171Z,13.77
2023-05-10T05:34:02.163Z,13.73
2023-05-10T05:35:07.150Z,13.66
2023-05-10T05:36:02.091Z,13.75
2023-05-10T05:37:02.090Z,13.79
2023-05-10T05:38:02.121Z,13.75
2023-05-10T05:39:02.074Z,13.82
2023-05-10T05:40:02.055Z,13.84
2023-05-10T05:41:02.050Z,13.92
2023-05-10T05:42:02.057Z,13.85
2023-05-10T05:43:02.025Z,13.91
2023-05-10T05:44:02.003Z,13.81
2023-05-10T05:45:02.008Z,13.75
2023-05-10T05:46:07.113Z,13.81
2023-05-10T05:47:01.993Z,13.81
2023-05-10T05:48:02.029Z,13.84
2023-05-10T05:49:01.948Z,13.81
2023-05-10T05:50:01.969Z,13.85
2023-05-10T05:51:01.926Z,13.87
2023-05-10T05:52:01.922Z,13.81
2023-05-10T05:53:01.933Z,13.85
2023-05-10T05:54:01.888Z,13.82
2023-05-10T05:55:01.879Z,13.75
2023-05-10T05:56:01.861Z,13.82
2023-05-10T05:57:06.896Z,13.82
2023-05-10T05:58:01.842Z,13.82
2023-05-10T05:59:01.852Z,13.78
2023-05-10T06:00:01.866Z,13.77
2023-05-10T06:01:01.840Z,13.75
2023-05-10T06:02:01.844Z,13.87
2023-05-10T06:03:01.939Z,13.73
2023-05-10T06:04:01.818Z,13.91
2023-05-10T06:05:01.777Z,13.89
2023-05-10T06:06:01.769Z,13.95
2023-05-10T06:07:01.762Z,14.02
2023-05-10T06:08:06.750Z,14.02
2023-05-10T06:09:01.724Z,14.03
2023-05-10T06:10:01.708Z,14.02
2023-05-10T06:11:01.717Z,14.03
2023-05-10T06:12:01.696Z,14.06
2023-05-10T06:13:01.686Z,14.09
2023-05-10T06:14:01.661Z,14.09
2023-05-10T06:15:01.651Z,14.10
2023-05-10T06:16:01.650Z,14.12
2023-05-10T06:17:01.852Z,14.07
2023-05-10T06:18:01.651Z,14.07
2023-05-10T06:19:06.636Z,14.12
2023-05-10T06:20:01.607Z,14.06
2023-05-10T06:21:01.598Z,14.12
2023-05-10T06:22:01.596Z,14.03
2023-05-10T06:23:01.601Z,14.17
2023-05-10T06:24:01.590Z,14.21
2023-05-10T06:25:01.548Z,14.18
2023-05-10T06:26:01.541Z,14.21
2023-05-10T06:27:01.530Z,14.27
2023-05-10T06:28:01.502Z,14.22
2023-05-10T06:29:01.519Z,14.27
2023-05-10T06:30:12.875Z,14.35
2023-05-10T06:31:01.508Z,14.28
2023-05-10T06:32:01.461Z,14.22
2023-05-10T06:33:01.495Z,14.29
2023-05-10T06:34:01.442Z,14.28
2023-05-10T06:35:01.486Z,14.32
2023-05-10T06:36:01.485Z,14.33
2023-05-10T06:37:01.402Z,14.32
2023-05-10T06:38:01.421Z,14.33
2023-05-10T06:39:01.381Z,14.35
2023-05-10T06:40:01.381Z,14.36
2023-05-10T06:41:06.404Z,14.39
2023-05-10T06:42:01.345Z,14.39
2023-05-10T06:43:01.341Z,14.33
2023-05-10T06:44:01.331Z,14.46
2023-05-10T06:45:01.327Z,14.37
2023-05-10T06:46:01.327Z,14.43
2023-05-10T06:47:01.337Z,14.45
2023-05-10T06:48:01.338Z,14.52
2023-05-10T06:49:01.297Z,14.55
2023-05-10T06:50:01.254Z,14.58
2023-05-10T06:51:01.249Z,14.52
2023-05-10T06:52:06.262Z,14.51
2023-05-10T06:53:01.245Z,14.58
2023-05-10T06:54:01.288Z,14.54
2023-05-10T06:55:01.205Z,14.65
2023-05-10T06:56:01.187Z,14.64
2023-05-10T06:57:02.546Z,14.73
2023-05-10T06:58:01.166Z,14.62
2023-05-10T06:59:01.214Z,14.65
2023-05-10T07:00:01.229Z,14.69
2023-05-10T07:01:01.146Z,14.69
2023-05-10T07:02:01.144Z,14.69
2023-05-10T07:03:06.225Z,14.70
2023-05-10T07:04:01.122Z,14.75
2023-05-10T07:05:14.797Z,14.72
2023-05-10T07:06:01.097Z,14.72
2023-05-10T07:07:01.166Z,14.73
2023-05-10T07:08:01.081Z,14.78
2023-05-10T07:09:01.063Z,14.86
2023-05-10T07:10:01.134Z,14.91
2023-05-10T07:11:01.115Z,15.01
2023-05-10T07:12:01.036Z,14.96
2023-05-10T07:13:01.094Z,15.06
2023-05-10T07:14:06.035Z,15.09
2023-05-10T07:15:00.968Z,14.98
2023-05-10T07:16:01.089Z,15.02
2023-05-10T07:17:00.975Z,15.03
2023-05-10T07:18:01.083Z,15.10
2023-05-10T07:19:00.935Z,15.19
2023-05-10T07:20:00.923Z,15.28
2023-05-10T07:21:01.011Z,15.14
2023-05-10T07:22:01.013Z,15.20
2023-05-10T07:23:00.958Z,15.21
2023-05-10T07:24:00.865Z,15.27
2023-05-10T07:25:05.922Z,15.25
2023-05-10T07:26:00.918Z,15.27
2023-05-10T07:27:00.849Z,15.36
2023-05-10T07:28:00.815Z,15.36
2023-05-10T07:29:00.804Z,15.56
2023-05-10T07:30:00.889Z,15.51
2023-05-10T07:31:00.805Z,15.51
2023-05-10T07:32:00.893Z,15.64
2023-05-10T07:33:00.785Z,15.67
2023-05-10T07:34:00.755Z,15.75
2023-05-10T07:35:00.755Z,15.76
2023-05-10T07:36:05.760Z,15.69
2023-05-10T07:37:00.728Z,15.67
2023-05-10T07:38:00.703Z,15.69
2023-05-10T07:39:00.695Z,15.64
2023-05-10T07:40:00.678Z,15.67
2023-05-10T07:41:00.701Z,15.64
2023-05-10T07:42:00.665Z,15.69
2023-05-10T07:43:00.670Z,15.67
2023-05-10T07:44:00.631Z,15.67
2023-05-10T07:45:00.627Z,15.72
2023-05-10T07:46:00.731Z,15.74
2023-05-10T07:47:05.693Z,15.87
2023-05-10T07:48:00.639Z,15.94
2023-05-10T07:49:00.574Z,15.94
2023-05-10T07:50:00.563Z,15.97
2023-05-10T07:51:00.570Z,15.97
2023-05-10T07:52:00.541Z,15.97
2023-05-10T07:53:00.540Z,15.94
2023-05-10T07:54:00.526Z,16.01
2023-05-10T07:55:00.518Z,16.00
2023-05-10T07:56:00.507Z,15.92
2023-05-10T07:57:00.505Z,16.01
2023-05-10T07:58:05.506Z,16.08
2023-05-10T07:59:00.466Z,16.02
2023-05-10T08:00:00.470Z,16.04
2023-05-10T08:01:00.441Z,16.08
2023-05-10T08:02:00.505Z,16.08
2023-05-10T08:03:00.615Z,15.97
2023-05-10T08:04:00.435Z,16.02
2023-05-10T08:05:00.409Z,15.97
2023-05-10T08:06:00.389Z,15.90
2023-05-10T08:07:00.370Z,15.94
2023-05-10T08:08:00.355Z,16.01
2023-05-10T08:09:05.381Z,15.97
2023-05-10T08:10:00.357Z,15.97
2023-05-10T08:11:00.326Z,15.96
2023-05-10T08:12:00.338Z,15.97
2023-05-10T08:13:00.323Z,15.97
2023-05-10T08:14:00.319Z,16.02
2023-05-10T08:15:00.286Z,16.00
2023-05-10T08:16:00.319Z,16.00
2023-05-10T08:17:00.255Z,15.97
2023-05-10T08:18:00.313Z,15.94
2023-05-10T08:19:00.323Z,15.90
2023-05-10T08:20:05.255Z,15.94
2023-05-10T08:21:00.214Z,15.94
2023-05-10T08:22:00.229Z,16.04
2023-05-10T08:23:00.214Z,16.01
2023-05-10T08:24:00.184Z,16.12
2023-05-10T08:25:00.185Z,16.02
2023-05-10T08:26:00.155Z,16.05
2023-05-10T08:27:00.166Z,16.12
2023-05-10T08:28:00.201Z,16.21
2023-05-10T08:29:00.147Z,16.20
2023-05-10T08:30:00.184Z,16.23
2023-05-10T08:31:05.146Z,16.24
2023-05-10T08:32:00.100Z,16.27
2023-05-10T08:33:00.150Z,16.31
2023-05-10T08:34:00.063Z,16.24
2023-05-10T08:35:00.052Z,16.27
2023-05-10T08:36:00.063Z,16.34
2023-05-10T08:37:00.049Z,16.23
2023-05-10T08:38:00.035Z,16.20
2023-05-10T08:39:00.007Z,16.24
2023-05-10T08:40:00.059Z,16.12
2023-05-10T08:41:00.202Z,16.04
2023-05-10T08:42:05.017Z,16.07
2023-05-10T08:42:59.970Z,16.00
2023-05-10T08:43:59.948Z,16.01
2023-05-10T08:44:59.967Z,16.04
2023-05-10T08:45:59.929Z,15.96
2023-05-10T08:46:59.956Z,15.94
2023-05-10T08:48:00.017Z,15.96
2023-05-10T08:48:59.893Z,15.93
2023-05-10T08:49:59.881Z,15.89
2023-05-10T08:50:59.889Z,15.92
2023-05-10T08:51:59.874Z,15.89
2023-05-10T08:53:04.873Z,15.89
2023-05-10T08:53:59.850Z,15.96
2023-05-10T08:54:59.825Z,16.00
2023-05-10T08:55:59.822Z,15.94
2023-05-10T08:56:59.806Z,15.97
2023-05-10T08:57:59.789Z,15.93
2023-05-10T08:58:59.782Z,15.90
2023-05-10T08:59:59.776Z,15.97
2023-05-10T09:00:59.817Z,15.96
2023-05-10T09:01:59.782Z,15.97
2023-05-10T09:02:59.771Z,15.92
2023-05-10T09:04:04.814Z,15.92
2023-05-10T09:04:59.946Z,15.82
2023-05-10T09:05:59.733Z,15.83
2023-05-10T09:06:59.733Z,15.75
2023-05-10T09:07:59.683Z,15.68
2023-05-10T09:08:59.669Z,15.67
2023-05-10T09:09:59.685Z,15.67
2023-05-10T09:10:59.643Z,15.71
2023-05-10T09:11:59.652Z,15.71
2023-05-10T09:12:59.750Z,15.72
2023-05-10T09:13:59.613Z,15.60
2023-05-10T09:15:04.635Z,15.64
2023-05-10T09:16:06.992Z,15.65
2023-05-10T09:16:59.646Z,15.60
2023-05-10T09:17:59.593Z,15.51
2023-05-10T09:18:59.600Z,15.62
2023-05-10T09:19:59.561Z,15.59
2023-05-10T09:20:59.534Z,15.65
2023-05-10T09:21:59.521Z,15.62
2023-05-10T09:22:59.506Z,15.62
2023-05-10T09:23:59.514Z,15.56
2023-05-10T09:24:59.488Z,15.60
2023-05-10T09:26:04.500Z,15.64
2023-05-10T09:26:59.464Z,15.71
2023-05-10T09:27:59.453Z,15.68
2023-05-10T09:28:59.447Z,15.72
2023-05-10T09:29:59.439Z,15.84
2023-05-10T09:30:59.466Z,15.89
2023-05-10T09:31:59.408Z,15.97
2023-05-10T09:32:59.502Z,16.08
2023-05-10T09:33:59.397Z,16.21
2023-05-10T09:34:59.371Z,16.25
2023-05-10T09:35:59.369Z,16.27
2023-05-10T09:37:04.378Z,16.28
2023-05-10T09:37:59.355Z,16.38
2023-05-10T09:38:59.342Z,16.31
2023-05-10T09:39:59.317Z,16.41
2023-05-10T09:40:59.302Z,16.39
2023-05-10T09:41:59.331Z,16.34
2023-05-10T09:42:59.289Z,16.33
2023-05-10T09:43:59.268Z,16.28
2023-05-10T09:44:59.261Z,16.30
2023-05-10T09:45:59.285Z,16.27
2023-05-10T09:46:59.242Z,16.28
2023-05-10T09:48:04.482Z,16.15
2023-05-10T09:48:59.225Z,16.09
2023-05-10T09:49:59.202Z,16.08
2023-05-10T09:50:59.201Z,16.08
2023-05-10T09:51:59.181Z,16.04
2023-05-10T09:52:59.184Z,16.02
2023-05-10T09:53:59.172Z,16.08
2023-05-10T09:54:59.147Z,16.09
2023-05-10T09:55:59.141Z,16.05
2023-05-10T09:56:59.121Z,15.94
2023-05-10T09:57:59.122Z,15.94
2023-05-10T09:59:04.153Z,16.00
2023-05-10T09:59:59.093Z,15.97
2023-05-10T10:00:59.090Z,16.05
2023-05-10T10:01:59.429Z,16.11
2023-05-10T10:02:59.126Z,16.02
2023-05-10T10:03:59.070Z,16.08
2023-05-10T10:04:59.138Z,16.08
2023-05-10T10:05:59.032Z,16.11
2023-05-10T10:06:59.105Z,16.05
2023-05-10T10:07:59.012Z,16.07
2023-05-10T10:08:58.992Z,16.17
2023-05-10T10:10:04.007Z,16.14
2023-05-10T10:10:58.968Z,16.11
2023-05-10T10:11:58.967Z,16.21
2023-05-10T10:12:58.945Z,16.20
2023-05-10T10:13:58.942Z,16.15
2023-05-10T10:14:58.920Z,16.21
2023-05-10T10:15:58.925Z,16.24
2023-05-10T10:17:08.414Z,16.39
2023-05-10T10:17:59.943Z,16.35
2023-05-10T10:18:58.918Z,16.33
2023-05-10T10:19:58.882Z,16.46
2023-05-10T10:21:03.888Z,16.34
2023-05-10T10:21:58.840Z,16.48
2023-05-10T10:22:58.830Z,16.46
2023-05-10T10:23:58.820Z,16.46
2023-05-10T10:24:58.811Z,16.23
2023-05-10T10:25:58.808Z,16.14
2023-05-10T10:26:58.813Z,16.07
2023-05-10T10:27:58.774Z,16.01
2023-05-10T10:28:58.760Z,16.04
2023-05-10T10:29:58.794Z,16.11
2023-05-10T10:30:58.788Z,16.09
2023-05-10T10:32:03.751Z,16.11
2023-05-10T10:32:58.767Z,16.17
2023-05-10T10:33:58.705Z,16.17
2023-05-10T10:34:58.706Z,16.23
2023-05-10T10:35:58.702Z,16.34
2023-05-10T10:36:58.690Z,16.42
2023-05-10T10:37:58.665Z,16.43
2023-05-10T10:38:58.661Z,16.58
2023-05-10T10:39:58.655Z,16.53
2023-05-10T10:40:58.624Z,16.63
2023-05-10T10:41:58.633Z,16.67
2023-05-10T10:43:03.642Z,16.75
2023-05-10T10:43:58.609Z,16.73
2023-05-10T10:44:58.607Z,16.78
2023-05-10T10:45:58.570Z,16.89
2023-05-10T10:46:58.582Z,16.94
2023-05-10T10:47:58.579Z,16.98
2023-05-10T10:48:58.605Z,16.97
2023-05-10T10:49:58.533Z,17.03
2023-05-10T10:50:58.527Z,17.12
2023-05-10T10:51:58.523Z,17.19
2023-05-10T10:52:58.548Z,17.33
2023-05-10T10:54:03.508Z,17.36
2023-05-10T10:54:58.468Z,17.54
2023-05-10T10:55:58.455Z,17.59
2023-05-10T10:56:58.443Z,17.70
2023-05-10T10:57:58.444Z,17.78
2023-05-10T10:58:58.432Z,17.84
2023-05-10T10:59:58.406Z,17.93
2023-05-10T11:00:58.411Z,17.97
2023-05-10T11:01:58.386Z,18.18
2023-05-10T11:02:58.401Z,18.20
2023-05-10T11:03:58.423Z,18.35
2023-05-10T11:05:03.371Z,18.35
2023-05-10T11:05:58.339Z,18.35
2023-05-10T11:06:58.331Z,18.44
2023-05-10T11:07:58.350Z,18.39
2023-05-10T11:08:58.306Z,18.66
2023-05-10T11:09:58.296Z,18.62
2023-05-10T11:10:58.281Z,18.60
2023-05-10T11:11:58.273Z,18.42
2023-05-10T11:12:58.277Z,18.54
2023-05-10T11:13:58.251Z,18.66
2023-05-10T11:14:58.242Z,18.73
2023-05-10T11:16:03.245Z,18.75
2023-05-10T11:16:58.282Z,18.76
2023-05-10T11:17:58.235Z,18.66
2023-05-10T11:18:58.219Z,18.55
2023-05-10T11:19:58.176Z,18.41
2023-05-10T11:20:58.168Z,18.41
2023-05-10T11:21:58.166Z,18.47
2023-05-10T11:22:58.170Z,18.69
2023-05-10T11:23:58.160Z,18.92
2023-05-10T11:24:58.137Z,18.99
2023-05-10T11:25:58.127Z,19.04
2023-05-10T11:27:03.141Z,18.95
2023-05-10T11:27:58.089Z,19.13
2023-05-10T11:28:58.076Z,19.04
2023-05-10T11:29:58.068Z,19.19
2023-05-10T11:30:58.098Z,19.19
2023-05-10T11:31:58.066Z,19.14
2023-05-10T11:32:58.045Z,19.14
2023-05-10T11:33:58.023Z,19.04
2023-05-10T11:34:58.010Z,18.95
2023-05-10T11:35:58.008Z,19.02
2023-05-10T11:36:57.998Z,19.13
2023-05-10T11:38:03.005Z,18.99
2023-05-10T11:38:57.966Z,18.95
2023-05-10T11:39:57.974Z,18.92
2023-05-10T11:40:57.953Z,18.90
2023-05-10T11:41:57.933Z,19.00
2023-05-10T11:42:57.921Z,18.94
2023-05-10T11:43:57.915Z,19.04
2023-05-10T11:44:57.896Z,19.02
2023-05-10T11:45:57.912Z,18.85
2023-05-10T11:46:57.882Z,18.84
2023-05-10T11:47:57.886Z,18.82
2023-05-10T11:49:03.050Z,18.91
2023-05-10T11:49:57.853Z,19.00
2023-05-10T11:50:57.845Z,19.11
2023-05-10T11:51:57.835Z,18.99
2023-05-10T11:52:57.811Z,19.02
2023-05-10T11:53:57.832Z,18.80
2023-05-10T11:54:57.799Z,18.48
2023-05-10T11:55:57.809Z,18.35
2023-05-10T11:56:57.762Z,18.35
2023-05-10T11:57:57.765Z,18.39
2023-05-10T11:58:57.759Z,18.44
2023-05-10T12:00:02.763Z,18.44
2023-05-10T12:00:57.739Z,18.55
2023-05-10T12:01:57.716Z,18.66
2023-05-10T12:02:57.748Z,18.67
2023-05-10T12:03:57.948Z,18.65
2023-05-10T12:04:57.733Z,18.75
2023-05-10T12:05:57.662Z,18.62
2023-05-10T12:06:57.646Z,18.63
2023-05-10T12:07:57.646Z,18.62
2023-05-10T12:08:57.633Z,18.62
2023-05-10T12:09:57.623Z,18.66
2023-05-10T12:11:02.664Z,18.62
2023-05-10T12:11:57.594Z,18.75
2023-05-10T12:12:57.576Z,18.76
2023-05-10T12:13:57.824Z,18.78
2023-05-10T12:14:57.558Z,18.75
2023-05-10T12:15:57.644Z,18.84
2023-05-10T12:16:57.532Z,18.91
2023-05-10T12:17:57.574Z,18.94
2023-05-10T12:18:57.664Z,18.82
2023-05-10T12:19:57.506Z,18.99
2023-05-10T12:20:57.499Z,19.06
2023-05-10T12:22:02.499Z,19.16
2023-05-10T12:22:59.659Z,19.26
2023-05-10T12:23:57.468Z,19.29
2023-05-10T12:24:57.444Z,19.37
2023-05-10T12:25:57.432Z,19.33
2023-05-10T12:26:57.440Z,19.32
2023-05-10T12:27:57.422Z,19.19
2023-05-10T12:28:57.415Z,19.23
2023-05-10T12:29:57.388Z,19.18
2023-05-10T12:30:57.375Z,19.06
2023-05-10T12:31:57.407Z,19.18
2023-05-10T12:33:02.426Z,19.19
2023-05-10T12:33:57.347Z,19.14
2023-05-10T12:34:57.331Z,19.18
2023-05-10T12:35:57.320Z,19.16
2023-05-10T12:36:57.326Z,19.16
2023-05-10T12:37:57.309Z,19.16
2023-05-10T12:38:57.293Z,19.08
2023-05-10T12:39:57.283Z,19.06
2023-05-10T12:40:57.317Z,19.00
2023-05-10T12:41:57.257Z,18.98
2023-05-10T12:42:57.304Z,18.76
2023-05-10T12:44:02.261Z,18.78
2023-05-10T12:44:57.230Z,18.69
2023-05-10T12:45:57.234Z,18.65
2023-05-10T12:46:57.205Z,18.73
2023-05-10T12:47:57.250Z,18.63
2023-05-10T12:49:07.673Z,18.75
2023-05-10T12:49:58.167Z,18.75
2023-05-10T12:50:57.163Z,18.87
2023-05-10T12:51:57.148Z,18.78
2023-05-10T12:52:57.153Z,18.73
2023-05-10T12:53:57.141Z,18.75
2023-05-10T12:55:02.128Z,18.67
2023-05-10T12:55:57.103Z,18.78
2023-05-10T12:56:57.099Z,18.81
2023-05-10T12:57:57.088Z,18.75
2023-05-10T12:58:57.131Z,18.80
2023-05-10T12:59:57.055Z,18.80
2023-05-10T13:00:57.049Z,18.73
2023-05-10T13:01:57.039Z,18.81
2023-05-10T13:02:57.025Z,18.80
2023-05-10T13:03:57.003Z,18.80
2023-05-10T13:04:57.009Z,18.73
2023-05-10T13:06:02.045Z,18.76
2023-05-10T13:06:56.976Z,18.76
2023-05-10T13:07:56.974Z,18.78
2023-05-10T13:08:56.962Z,18.65
2023-05-10T13:09:56.947Z,18.66
2023-05-10T13:10:56.922Z,18.75
2023-05-10T13:11:56.926Z,18.76
2023-05-10T13:12:56.903Z,18.75
2023-05-10T13:13:56.890Z,18.75
2023-05-10T13:14:56.912Z,18.80
2023-05-10T13:15:56.891Z,18.73
2023-05-10T13:17:01.931Z,18.78
2023-05-10T13:17:56.903Z,18.73
2023-05-10T13:18:56.990Z,18.78
2023-05-10T13:19:56.821Z,18.76
2023-05-10T13:20:56.844Z,18.80
2023-05-10T13:21:56.806Z,18.87
2023-05-10T13:22:56.793Z,18.91
2023-05-10T13:23:56.777Z,18.88
2023-05-10T13:24:56.768Z,18.82
2023-05-10T13:25:56.761Z,18.82
2023-05-10T13:26:56.746Z,18.84
2023-05-10T13:28:01.751Z,18.90
2023-05-10T13:28:56.750Z,18.82
2023-05-10T13:29:56.718Z,18.87
2023-05-10T13:30:56.747Z,18.73
2023-05-10T13:31:56.811Z,18.75
2023-05-10T13:32:56.726Z,18.72
2023-05-10T13:33:56.677Z,18.78
2023-05-10T13:34:56.669Z,18.82
2023-05-10T13:35:56.637Z,18.84
2023-05-10T13:36:56.651Z,18.82
2023-05-10T13:37:56.617Z,18.87
2023-05-10T13:39:01.650Z,18.90
2023-05-10T13:39:56.608Z,18.88
2023-05-10T13:40:56.595Z,18.99
2023-05-10T13:41:56.573Z,19.00
2023-05-10T13:42:56.574Z,19.02
2023-05-10T13:43:56.566Z,18.88
2023-05-10T13:44:56.560Z,19.00
2023-05-10T13:45:56.586Z,18.88
2023-05-10T13:46:56.540Z,18.92
2023-05-10T13:47:56.533Z,18.94
2023-05-10T13:48:56.514Z,19.02
2023-05-10T13:50:01.540Z,19.00
2023-05-10T13:50:56.482Z,18.95
2023-05-10T13:51:56.462Z,19.04
2023-05-10T13:52:56.455Z,19.00
2023-05-10T13:53:56.455Z,19.00
2023-05-10T13:54:56.432Z,18.91
2023-05-10T13:55:56.419Z,18.81
2023-05-10T13:56:56.413Z,18.88
2023-05-10T13:57:56.414Z,18.87
2023-05-10T13:58:56.397Z,18.84
2023-05-10T13:59:57.586Z,18.88
2023-05-10T14:01:01.388Z,19.00
2023-05-10T14:01:56.429Z,19.04
2023-05-10T14:02:56.475Z,18.92
2023-05-10T14:03:56.415Z,18.95
2023-05-10T14:04:56.318Z,19.00
2023-05-10T14:05:56.304Z,18.95
2023-05-10T14:06:56.294Z,18.98
2023-05-10T14:07:56.304Z,18.94
2023-05-10T14:08:56.288Z,18.85
2023-05-10T14:09:56.259Z,18.82
2023-05-10T14:10:56.249Z,18.82
2023-05-10T14:12:01.274Z,18.87
2023-05-10T14:12:56.226Z,18.75
2023-05-10T14:13:56.213Z,18.80
2023-05-10T14:14:56.219Z,18.75
2023-05-10T14:15:56.216Z,18.76
2023-05-10T14:16:56.191Z,18.73
2023-05-10T14:17:56.193Z,18.73
2023-05-10T14:18:56.197Z,18.70
2023-05-10T14:19:56.145Z,18.63
2023-05-10T14:20:56.153Z,18.66
2023-05-10T14:21:56.132Z,18.60
2023-05-10T14:23:01.140Z,18.66
2023-05-10T14:23:56.100Z,18.62
2023-05-10T14:24:56.090Z,18.66
2023-05-10T14:25:56.087Z,18.60
2023-05-10T14:26:56.081Z,18.66
2023-05-10T14:27:56.058Z,18.63
2023-05-10T14:28:56.093Z,18.67
2023-05-10T14:29:56.058Z,18.63
2023-05-10T14:30:56.037Z,18.63
2023-05-10T14:31:56.063Z,18.62
2023-05-10T14:32:56.021Z,18.63
2023-05-10T14:34:01.026Z,18.63
2023-05-10T14:34:55.988Z,18.60
2023-05-10T14:35:55.981Z,18.58
2023-05-10T14:36:55.953Z,18.65
2023-05-10T14:37:55.959Z,18.65
2023-05-10T14:38:55.934Z,18.84
2023-05-10T14:39:55.938Z,18.76
2023-05-10T14:40:55.909Z,18.85
2023-05-10T14:41:55.893Z,18.88
2023-05-10T14:42:55.890Z,19.02
2023-05-10T14:43:55.871Z,18.81
2023-05-10T14:45:00.892Z,18.99
2023-05-10T14:45:55.889Z,18.90
2023-05-10T14:46:55.847Z,18.99
2023-05-10T14:47:55.859Z,18.99
2023-05-10T14:48:55.812Z,19.00
2023-05-10T14:49:55.829Z,18.94
2023-05-10T14:50:55.792Z,18.92
2023-05-10T14:51:55.780Z,19.06
2023-05-10T14:52:55.770Z,19.06
2023-05-10T14:53:55.761Z,19.11
2023-05-10T14:54:55.748Z,19.10
2023-05-10T14:56:00.754Z,19.19
2023-05-10T14:56:55.717Z,19.22
2023-05-10T14:57:55.711Z,19.19
2023-05-10T14:58:55.711Z,19.10
2023-05-10T14:59:55.696Z,18.95
2023-05-10T15:00:55.739Z,18.92
2023-05-10T15:01:55.666Z,18.99
2023-05-10T15:02:55.741Z,19.02
2023-05-10T15:03:55.704Z,18.99
2023-05-10T15:04:55.638Z,19.04
2023-05-10T15:05:55.652Z,18.98
2023-05-10T15:07:00.627Z,18.95
2023-05-10T15:07:55.600Z,18.95
2023-05-10T15:08:55.595Z,18.78
2023-05-10T15:09:55.573Z,18.78
2023-05-10T15:10:55.560Z,18.72
2023-05-10T15:11:55.545Z,18.81
2023-05-10T15:12:55.540Z,18.87
2023-05-10T15:13:55.531Z,18.99
2023-05-10T15:14:55.516Z,19.00
2023-05-10T15:15:55.520Z,19.04
2023-05-10T15:16:55.507Z,18.95
2023-05-10T15:18:00.557Z,19.13
2023-05-10T15:18:55.551Z,19.19
2023-05-10T15:19:55.454Z,19.14
2023-05-10T15:20:55.447Z,19.18
2023-05-10T15:21:55.461Z,19.11
2023-05-10T15:22:55.440Z,19.16
2023-05-10T15:23:55.410Z,19.22
2023-05-10T15:24:55.400Z,19.19
2023-05-10T15:25:55.390Z,19.06
2023-05-10T15:26:55.378Z,19.13
2023-05-10T15:27:55.371Z,19.08
2023-05-10T15:29:00.428Z,18.99
2023-05-10T15:29:55.339Z,19.02
2023-05-10T15:30:55.351Z,19.13
2023-05-10T15:31:55.407Z,19.08
2023-05-10T15:32:55.391Z,19.02
2023-05-10T15:33:55.297Z,19.02
2023-05-10T15:34:55.305Z,18.95
2023-05-10T15:35:55.293Z,18.99
2023-05-10T15:36:55.278Z,18.98
2023-05-10T15:37:55.279Z,19.11
2023-05-10T15:38:55.246Z,19.10
2023-05-10T15:40:00.260Z,19.22
2023-05-10T15:40:55.225Z,19.11
2023-05-10T15:41:55.215Z,19.21
2023-05-10T15:42:55.198Z,19.18
2023-05-10T15:43:55.210Z,19.28
2023-05-10T15:44:55.173Z,19.33
2023-05-10T15:45:55.172Z,19.32
2023-05-10T15:46:55.248Z,19.33
2023-05-10T15:47:55.199Z,19.46
2023-05-10T15:48:55.142Z,19.31
2023-05-10T15:49:55.114Z,19.32
2023-05-10T15:51:00.160Z,19.29
2023-05-10T15:51:55.107Z,19.33
2023-05-10T15:52:55.096Z,19.26
2023-05-10T15:54:06.469Z,19.26
2023-05-10T15:54:56.074Z,19.23
2023-05-10T15:55:55.065Z,19.37
2023-05-10T15:56:55.051Z,19.32
2023-05-10T15:57:55.034Z,19.32
2023-05-10T15:58:55.024Z,19.39
2023-05-10T15:59:55.007Z,19.40
2023-05-10T16:00:55.033Z,19.39
2023-05-10T16:02:00.045Z,19.39
2023-05-10T16:02:55.124Z,19.31
2023-05-10T16:03:54.977Z,19.39
2023-05-10T16:04:54.977Z,19.33
2023-05-10T16:05:54.950Z,19.32
2023-05-10T16:06:54.942Z,19.36
2023-05-10T16:07:54.918Z,19.25
2023-05-10T16:08:54.909Z,19.25
2023-05-10T16:09:54.927Z,19.32
2023-05-10T16:10:54.890Z,19.29
2023-05-10T16:11:54.913Z,19.36
2023-05-10T16:12:59.881Z,19.32
2023-05-10T16:13:54.857Z,19.25
2023-05-10T16:14:54.856Z,19.32
2023-05-10T16:15:54.881Z,19.21
2023-05-10T16:16:54.914Z,19.19
2023-05-10T16:17:54.972Z,19.13
2023-05-10T16:18:54.879Z,19.22
2023-05-10T16:19:54.897Z,19.16
2023-05-10T16:20:54.770Z,19.18
2023-05-10T16:21:54.768Z,19.10
2023-05-10T16:22:54.752Z,19.07
2023-05-10T16:23:59.779Z,19.13
2023-05-10T16:24:54.758Z,19.16
2023-05-10T16:25:54.736Z,19.13
2023-05-10T16:26:54.700Z,19.14
2023-05-10T16:27:54.691Z,19.07
2023-05-10T16:28:54.699Z,19.07
2023-05-10T16:29:54.682Z,19.16
2023-05-10T16:30:54.685Z,19.11
2023-05-10T16:31:54.672Z,19.08
2023-05-10T16:32:54.640Z,19.00
2023-05-10T16:33:54.659Z,18.99
2023-05-10T16:34:59.631Z,18.95
2023-05-10T16:35:54.615Z,19.00
2023-05-10T16:36:54.609Z,18.92
2023-05-10T16:37:54.594Z,19.00
2023-05-10T16:38:54.590Z,18.94
2023-05-10T16:39:54.581Z,19.00
2023-05-10T16:40:54.542Z,18.95
2023-05-10T16:41:54.550Z,18.98
2023-05-10T16:42:54.527Z,19.00
2023-05-10T16:43:54.507Z,19.06
2023-05-10T16:44:54.500Z,19.00
2023-05-10T16:45:59.537Z,19.02
2023-05-10T16:46:54.469Z,19.04
2023-05-10T16:47:54.514Z,18.95
2023-05-10T16:48:54.456Z,18.99
2023-05-10T16:49:54.442Z,19.02
2023-05-10T16:50:54.437Z,18.92
2023-05-10T16:51:54.444Z,19.00
2023-05-10T16:52:54.408Z,18.94
2023-05-10T16:53:54.402Z,19.00
2023-05-10T16:54:54.378Z,18.87
2023-05-10T16:55:54.369Z,18.91
2023-05-10T16:56:59.408Z,18.91
2023-05-10T16:57:54.356Z,18.91
2023-05-10T16:58:54.348Z,18.90
2023-05-10T16:59:54.331Z,18.91
2023-05-10T17:00:54.310Z,18.91
2023-05-10T17:01:54.374Z,18.91
2023-05-10T17:02:54.347Z,18.88
2023-05-10T17:03:54.344Z,18.88
2023-05-10T17:04:54.273Z,18.85
2023-05-10T17:05:54.259Z,18.82
2023-05-10T17:06:54.266Z,18.90
2023-05-10T17:07:59.258Z,18.92
2023-05-10T17:08:54.462Z,18.88
2023-05-10T17:09:54.237Z,18.92
2023-05-10T17:10:54.194Z,18.92
2023-05-10T17:11:54.211Z,18.81
2023-05-10T17:12:54.191Z,18.87
2023-05-10T17:13:54.170Z,18.88
2023-05-10T17:14:54.156Z,18.81
2023-05-10T17:15:54.258Z,18.76
2023-05-10T17:16:54.228Z,18.78
2023-05-10T17:17:54.198Z,18.78
2023-05-10T17:18:59.206Z,18.73
2023-05-10T17:19:54.103Z,18.73
2023-05-10T17:20:54.092Z,18.69
2023-05-10T17:21:54.078Z,18.63
2023-05-10T17:22:54.064Z,18.60
2023-05-10T17:23:54.056Z,18.65
2023-05-10T17:24:54.045Z,18.66
2023-05-10T17:25:54.050Z,18.70
2023-05-10T17:26:54.015Z,18.63
2023-05-10T17:27:54.005Z,18.66
2023-05-10T17:28:54.015Z,18.63
2023-05-10T17:29:59.110Z,18.65
2023-05-10T17:30:53.977Z,18.54
2023-05-10T17:31:53.987Z,18.52
2023-05-10T17:32:53.970Z,18.55
2023-05-10T17:33:53.943Z,18.52
2023-05-10T17:34:53.934Z,18.52
2023-05-10T17:35:53.932Z,18.54
2023-05-10T17:36:53.897Z,18.57
2023-05-10T17:37:53.890Z,18.52
2023-05-10T17:38:53.876Z,18.51
2023-05-10T17:39:53.879Z,18.42
2023-05-10T17:40:58.882Z,18.44
2023-05-10T17:41:53.858Z,18.48
2023-05-10T17:42:53.834Z,18.45
2023-05-10T17:43:53.824Z,18.45
2023-05-10T17:44:53.852Z,18.42
2023-05-10T17:45:53.838Z,18.47
2023-05-10T17:46:53.785Z,18.39
2023-05-10T17:47:53.836Z,18.41
2023-05-10T17:48:53.791Z,18.44
2023-05-10T17:49:53.760Z,18.36
2023-05-10T17:50:53.748Z,18.44
2023-05-10T17:51:58.764Z,18.35
2023-05-10T17:52:53.721Z,18.35
2023-05-10T17:53:53.736Z,18.32